Ashwood, Texas
Current Conditions -  °F | °C
As of 10:53 PM on Sunday 23 Nov 2014 (Local Time) from KLBX Reporting Station
Clear Clear  
Wind Chill: 61°   Ceiling: Unl
Heat Index: 61°   Visibility: 10mi
Dew Point: 61°   Wind: 5mph
Humidity: 100%   Direction: 190°S
Pressure: 29.71"   Gusts: NA
Location:  29.0235°N, 95.7113°W
Report Text: KLBX 240453Z AUTO 19004KT 10SM CLR 16/16 A2971 RMK AO2 SLP061 T01610161
Loading
Personal Weather Stations






























Interactive Weather Map New forecast layout! Learn more

10-Day Weather Forecast

Advertisements
Track Severe Weather on mobile